GLD1028 SBCT-SBSP
Flight info
| Callsign | GLD1028 |
|---|---|
| Flight time | 0h 38m |
| Altitude | 27000 |
| Route | EDVE1A EDVEB UM548 DOSMU DCT ANISE OGTA2A |
| Aircraft | B738/M-SDFGIRY/S |
Departure
| Time | 2026-05-05 10:59 |
|---|---|
| Airport | Curitiba-Afonso Pena International Airport (SBCT) |
Arrival
| Time | 2026-05-05 11:38 |
|---|---|
| Airport | Congonhas–Deputado Freitas Nobre Airport (SBSP) |
| Time | Latitude | Longitude | Altitude | Speed | Heading |
|---|---|---|---|---|---|
| 2026-05-05 10:42 | -25.53525 | -49.17261 | 2995 ft | 0 kts | 225° |
| 2026-05-05 10:44 | -25.53522 | -49.17258 | 2995 ft | 2 kts | 225° |
| 2026-05-05 10:44 | -25.53515 | -49.17250 | 2995 ft | 2 kts | 225° |
| 2026-05-05 10:45 | -25.53507 | -49.17242 | 2995 ft | 2 kts | 225° |
| 2026-05-05 10:45 | -25.53500 | -49.17234 | 2995 ft | 2 kts | 225° |
| 2026-05-05 10:45 | -25.53493 | -49.17226 | 2995 ft | 1 kts | 243° |
| 2026-05-05 10:45 | -25.53489 | -49.17216 | 2995 ft | 1 kts | 241° |
| 2026-05-05 10:46 | -25.53485 | -49.17210 | 2995 ft | 0 kts | 277° |
| 2026-05-05 10:46 | -25.53484 | -49.17207 | 2995 ft | 0 kts | 315° |
| 2026-05-05 10:47 | -25.53482 | -49.17210 | 2995 ft | 2 kts | 309° |
| 2026-05-05 10:47 | -25.53448 | -49.17252 | 2995 ft | 10 kts | 313° |
| 2026-05-05 10:47 | -25.53391 | -49.17269 | 2995 ft | 10 kts | 34° |
| 2026-05-05 10:48 | -25.53332 | -49.17263 | 2995 ft | 10 kts | 320° |
| 2026-05-05 10:48 | -25.53285 | -49.17314 | 2995 ft | 9 kts | 314° |
| 2026-05-05 10:48 | -25.53241 | -49.17364 | 2995 ft | 9 kts | 314° |
| 2026-05-05 10:48 | -25.53197 | -49.17412 | 2995 ft | 9 kts | 313° |
| 2026-05-05 10:49 | -25.53155 | -49.17460 | 2995 ft | 9 kts | 313° |
| 2026-05-05 10:49 | -25.53114 | -49.17506 | 2995 ft | 8 kts | 315° |
| 2026-05-05 10:49 | -25.53074 | -49.17551 | 2995 ft | 8 kts | 315° |
| 2026-05-05 10:49 | -25.53035 | -49.17594 | 2995 ft | 8 kts | 315° |
| 2026-05-05 10:50 | -25.52997 | -49.17636 | 2995 ft | 8 kts | 313° |
| 2026-05-05 10:50 | -25.52981 | -49.17689 | 2994 ft | 7 kts | 271° |
| 2026-05-05 10:50 | -25.52981 | -49.17744 | 2994 ft | 7 kts | 271° |
| 2026-05-05 10:50 | -25.52980 | -49.17798 | 2994 ft | 7 kts | 271° |
| 2026-05-05 10:51 | -25.52976 | -49.17850 | 2994 ft | 7 kts | 278° |
| 2026-05-05 10:51 | -25.52951 | -49.17893 | 2994 ft | 7 kts | 315° |
| 2026-05-05 10:51 | -25.52934 | -49.17912 | 2994 ft | 0 kts | 315° |
| 2026-05-05 10:51 | -25.52931 | -49.17916 | 2994 ft | 4 kts | 315° |
| 2026-05-05 10:52 | -25.52893 | -49.17957 | 2993 ft | 9 kts | 315° |
| 2026-05-05 10:52 | -25.52839 | -49.17999 | 2992 ft | 10 kts | 5° |
| 2026-05-05 10:52 | -25.52830 | -49.17971 | 2992 ft | 0 kts | 92° |
| 2026-05-05 10:53 | -25.52829 | -49.17969 | 2992 ft | 1 kts | 70° |
| 2026-05-05 10:53 | -25.52822 | -49.17971 | 2992 ft | 1 kts | 342° |
| 2026-05-05 10:53 | -25.52787 | -49.17993 | 2993 ft | 10 kts | 350° |
| 2026-05-05 10:53 | -25.52716 | -49.17999 | 2994 ft | 10 kts | 358° |
| 2026-05-05 10:54 | -25.52647 | -49.18001 | 2995 ft | 10 kts | 359° |
| 2026-05-05 10:54 | -25.52579 | -49.18002 | 2995 ft | 10 kts | 359° |
| 2026-05-05 10:54 | -25.52514 | -49.18004 | 2995 ft | 9 kts | 358° |
| 2026-05-05 10:54 | -25.52452 | -49.18023 | 2995 ft | 10 kts | 320° |
| 2026-05-05 10:55 | -25.52402 | -49.18081 | 2995 ft | 10 kts | 314° |
| 2026-05-05 10:55 | -25.52353 | -49.18138 | 2996 ft | 10 kts | 314° |
| 2026-05-05 10:55 | -25.52303 | -49.18191 | 2996 ft | 10 kts | 318° |
| 2026-05-05 10:55 | -25.52236 | -49.18223 | 2996 ft | 11 kts | 347° |
| 2026-05-05 10:56 | -25.52209 | -49.18287 | 2995 ft | 8 kts | 234° |
| 2026-05-05 10:56 | -25.52240 | -49.18264 | 2995 ft | 0 kts | 129° |
| 2026-05-05 10:58 | -25.52261 | -49.18237 | 2996 ft | 25 kts | 132° |
| 2026-05-05 10:58 | -25.52568 | -49.17890 | 2994 ft | 100 kts | 135° |
| 2026-05-05 10:59 | -25.53210 | -49.17171 | 2999 ft | 161 kts | 134° |
| 2026-05-05 10:59 | -25.54038 | -49.16248 | 3552 ft | 171 kts | 134° |
| 2026-05-05 10:59 | -25.54885 | -49.15265 | 4219 ft | 183 kts | 133° |
| 2026-05-05 10:59 | -25.55394 | -49.13987 | 4824 ft | 191 kts | 87° |
| 2026-05-05 11:00 | -25.55249 | -49.12423 | 5141 ft | 219 kts | 80° |
| 2026-05-05 11:00 | -25.55046 | -49.10649 | 5341 ft | 245 kts | 81° |
| 2026-05-05 11:00 | -25.54842 | -49.08680 | 5608 ft | 269 kts | 82° |
| 2026-05-05 11:00 | -25.54649 | -49.06566 | 6194 ft | 280 kts | 83° |
| 2026-05-05 11:01 | -25.54472 | -49.04411 | 7045 ft | 282 kts | 83° |
| 2026-05-05 11:01 | -25.54306 | -49.02238 | 7875 ft | 285 kts | 84° |
| 2026-05-05 11:01 | -25.54147 | -49.00062 | 8641 ft | 289 kts | 85° |
| 2026-05-05 11:01 | -25.53988 | -48.97837 | 9493 ft | 290 kts | 85° |
| 2026-05-05 11:02 | -25.53828 | -48.95582 | 10265 ft | 296 kts | 86° |
| 2026-05-05 11:02 | -25.53664 | -48.93269 | 10746 ft | 311 kts | 85° |
| 2026-05-05 11:02 | -25.53336 | -48.90803 | 10910 ft | 337 kts | 78° |
| 2026-05-05 11:02 | -25.52775 | -48.88193 | 11101 ft | 359 kts | 76° |
| 2026-05-05 11:03 | -25.52132 | -48.85469 | 11584 ft | 370 kts | 75° |
| 2026-05-05 11:03 | -25.51478 | -48.82702 | 12277 ft | 373 kts | 76° |
| 2026-05-05 11:03 | -25.50833 | -48.79914 | 13018 ft | 375 kts | 76° |
| 2026-05-05 11:03 | -25.50198 | -48.77115 | 13736 ft | 377 kts | 77° |
| 2026-05-05 11:04 | -25.49567 | -48.74284 | 14363 ft | 381 kts | 77° |
| 2026-05-05 11:04 | -25.48932 | -48.71416 | 14887 ft | 387 kts | 78° |
| 2026-05-05 11:04 | -25.48289 | -48.68499 | 15385 ft | 393 kts | 78° |
| 2026-05-05 11:04 | -25.47637 | -48.65540 | 15930 ft | 398 kts | 78° |
| 2026-05-05 11:05 | -25.46976 | -48.62545 | 16449 ft | 403 kts | 78° |
| 2026-05-05 11:05 | -25.46307 | -48.59514 | 16976 ft | 408 kts | 78° |
| 2026-05-05 11:05 | -25.45628 | -48.56443 | 17475 ft | 413 kts | 78° |
| 2026-05-05 11:05 | -25.44940 | -48.53337 | 17976 ft | 418 kts | 78° |
| 2026-05-05 11:06 | -25.44243 | -48.50194 | 18469 ft | 423 kts | 78° |
| 2026-05-05 11:06 | -25.43537 | -48.47022 | 18925 ft | 426 kts | 78° |
| 2026-05-05 11:06 | -25.42826 | -48.43835 | 19439 ft | 427 kts | 78° |
| 2026-05-05 11:06 | -25.42111 | -48.40641 | 20028 ft | 426 kts | 78° |
| 2026-05-05 11:07 | -25.41399 | -48.37458 | 20522 ft | 429 kts | 78° |
| 2026-05-05 11:07 | -25.40690 | -48.34286 | 20962 ft | 432 kts | 78° |
| 2026-05-05 11:07 | -25.39963 | -48.31039 | 21414 ft | 435 kts | 78° |
| 2026-05-05 11:07 | -25.39231 | -48.27773 | 21888 ft | 438 kts | 78° |
| 2026-05-05 11:08 | -25.38495 | -48.24490 | 22356 ft | 440 kts | 78° |
| 2026-05-05 11:08 | -25.37753 | -48.21191 | 22803 ft | 442 kts | 78° |
| 2026-05-05 11:08 | -25.37009 | -48.17882 | 23253 ft | 445 kts | 78° |
| 2026-05-05 11:08 | -25.36262 | -48.14561 | 23670 ft | 447 kts | 78° |
| 2026-05-05 11:09 | -25.35506 | -48.11205 | 24022 ft | 450 kts | 77° |
| 2026-05-05 11:09 | -25.34747 | -48.07841 | 24350 ft | 453 kts | 77° |
| 2026-05-05 11:09 | -25.33980 | -48.04443 | 24679 ft | 456 kts | 77° |
| 2026-05-05 11:09 | -25.33208 | -48.01028 | 25011 ft | 459 kts | 77° |
| 2026-05-05 11:10 | -25.32432 | -47.97590 | 25327 ft | 462 kts | 78° |
| 2026-05-05 11:10 | -25.31770 | -47.94108 | 25653 ft | 465 kts | 81° |
| 2026-05-05 11:10 | -25.31186 | -47.90588 | 26003 ft | 467 kts | 81° |
| 2026-05-05 11:10 | -25.30599 | -47.87052 | 26341 ft | 469 kts | 81° |
| 2026-05-05 11:11 | -25.29984 | -47.83505 | 26700 ft | 471 kts | 80° |
| 2026-05-05 11:11 | -25.29356 | -47.79994 | 27049 ft | 472 kts | 80° |
| 2026-05-05 11:11 | -25.28703 | -47.76386 | 27146 ft | 474 kts | 80° |
| 2026-05-05 11:11 | -25.28067 | -47.72869 | 27152 ft | 472 kts | 80° |
| 2026-05-05 11:12 | -25.27430 | -47.69326 | 27158 ft | 470 kts | 80° |
| 2026-05-05 11:12 | -25.26793 | -47.65780 | 27162 ft | 471 kts | 80° |
| 2026-05-05 11:12 | -25.26150 | -47.62233 | 27164 ft | 471 kts | 80° |
| 2026-05-05 11:12 | -25.25492 | -47.58686 | 27163 ft | 471 kts | 80° |
| 2026-05-05 11:13 | -25.24831 | -47.55138 | 27160 ft | 472 kts | 80° |
| 2026-05-05 11:13 | -25.24169 | -47.51589 | 27158 ft | 471 kts | 80° |
| 2026-05-05 11:13 | -25.23372 | -47.48072 | 27148 ft | 473 kts | 72° |
| 2026-05-05 11:13 | -25.22083 | -47.44732 | 27160 ft | 473 kts | 63° |
| 2026-05-05 11:14 | -25.20370 | -47.41632 | 27156 ft | 473 kts | 53° |
| 2026-05-05 11:14 | -25.18297 | -47.38810 | 27167 ft | 473 kts | 50° |
| 2026-05-05 11:14 | -25.16167 | -47.36040 | 27159 ft | 473 kts | 49° |
| 2026-05-05 11:14 | -25.14026 | -47.33276 | 27156 ft | 473 kts | 49° |
| 2026-05-05 11:15 | -25.11900 | -47.30519 | 27160 ft | 473 kts | 50° |
| 2026-05-05 11:15 | -25.09774 | -47.27741 | 27157 ft | 473 kts | 50° |
| 2026-05-05 11:15 | -25.07661 | -47.24961 | 27160 ft | 473 kts | 50° |
| 2026-05-05 11:15 | -25.05554 | -47.22178 | 27160 ft | 473 kts | 50° |
| 2026-05-05 11:16 | -25.03454 | -47.19398 | 27159 ft | 473 kts | 50° |
| 2026-05-05 11:16 | -25.01349 | -47.16612 | 27160 ft | 473 kts | 50° |
| 2026-05-05 11:16 | -24.99269 | -47.13859 | 27164 ft | 472 kts | 50° |
| 2026-05-05 11:16 | -24.97165 | -47.11078 | 27164 ft | 472 kts | 50° |
| 2026-05-05 11:17 | -24.95060 | -47.08297 | 27165 ft | 472 kts | 50° |
| 2026-05-05 11:17 | -24.92954 | -47.05517 | 27163 ft | 472 kts | 50° |
| 2026-05-05 11:17 | -24.90847 | -47.02739 | 27162 ft | 472 kts | 50° |
| 2026-05-05 11:17 | -24.88740 | -46.99962 | 27163 ft | 472 kts | 50° |
| 2026-05-05 11:18 | -24.86637 | -46.97192 | 27161 ft | 472 kts | 50° |
| 2026-05-05 11:18 | -24.84554 | -46.94450 | 27145 ft | 460 kts | 50° |
| 2026-05-05 11:18 | -24.82522 | -46.91777 | 26820 ft | 452 kts | 50° |
| 2026-05-05 11:18 | -24.80516 | -46.89141 | 26440 ft | 446 kts | 51° |
| 2026-05-05 11:19 | -24.78536 | -46.86539 | 25991 ft | 442 kts | 51° |
| 2026-05-05 11:19 | -24.76571 | -46.83957 | 25548 ft | 438 kts | 51° |
| 2026-05-05 11:19 | -24.74618 | -46.81392 | 25097 ft | 435 kts | 51° |
| 2026-05-05 11:19 | -24.72677 | -46.78845 | 24634 ft | 433 kts | 51° |
| 2026-05-05 11:20 | -24.70745 | -46.76312 | 24171 ft | 431 kts | 51° |
| 2026-05-05 11:20 | -24.68824 | -46.73793 | 23700 ft | 429 kts | 52° |
| 2026-05-05 11:20 | -24.66913 | -46.71287 | 23181 ft | 426 kts | 52° |
| 2026-05-05 11:20 | -24.65016 | -46.68802 | 22709 ft | 423 kts | 51° |
| 2026-05-05 11:21 | -24.63157 | -46.66370 | 22250 ft | 419 kts | 51° |
| 2026-05-05 11:21 | -24.61065 | -46.64160 | 21751 ft | 418 kts | 33° |
| 2026-05-05 11:21 | -24.58445 | -46.62831 | 21340 ft | 414 kts | 15° |
| 2026-05-05 11:21 | -24.55615 | -46.62382 | 20885 ft | 409 kts | 360° |
| 2026-05-05 11:22 | -24.52789 | -46.62402 | 20444 ft | 406 kts | 358° |
| 2026-05-05 11:22 | -24.49976 | -46.62467 | 19996 ft | 403 kts | 358° |
| 2026-05-05 11:22 | -24.47178 | -46.62521 | 19555 ft | 401 kts | 358° |
| 2026-05-05 11:22 | -24.45329 | -46.62543 | 19258 ft | 399 kts | 359° |
| 2026-05-05 11:23 | -24.42558 | -46.62558 | 18808 ft | 397 kts | 359° |
| 2026-05-05 11:23 | -24.39801 | -46.62565 | 18368 ft | 395 kts | 359° |
| 2026-05-05 11:23 | -24.37064 | -46.62567 | 17901 ft | 392 kts | 359° |
| 2026-05-05 11:23 | -24.34351 | -46.62567 | 17468 ft | 388 kts | 359° |
| 2026-05-05 11:24 | -24.31669 | -46.62568 | 17043 ft | 384 kts | 359° |
| 2026-05-05 11:24 | -24.29030 | -46.62568 | 16604 ft | 373 kts | 359° |
| 2026-05-05 11:24 | -24.26459 | -46.62570 | 16207 ft | 368 kts | 359° |
| 2026-05-05 11:24 | -24.23904 | -46.62572 | 15798 ft | 366 kts | 359° |
| 2026-05-05 11:25 | -24.21366 | -46.62574 | 15398 ft | 364 kts | 359° |
| 2026-05-05 11:25 | -24.18843 | -46.62575 | 15013 ft | 361 kts | 360° |
| 2026-05-05 11:25 | -24.16336 | -46.62577 | 14615 ft | 359 kts | 360° |
| 2026-05-05 11:25 | -24.13845 | -46.62579 | 14210 ft | 357 kts | 360° |
| 2026-05-05 11:26 | -24.11396 | -46.62580 | 13770 ft | 347 kts | 360° |
| 2026-05-05 11:26 | -24.09010 | -46.62581 | 13347 ft | 337 kts | 360° |
| 2026-05-05 11:26 | -24.06698 | -46.62583 | 12944 ft | 328 kts | 360° |
| 2026-05-05 11:26 | -24.04458 | -46.62584 | 12680 ft | 316 kts | 359° |
| 2026-05-05 11:27 | -24.02289 | -46.62585 | 12437 ft | 310 kts | 359° |
| 2026-05-05 11:27 | -24.00131 | -46.62587 | 12185 ft | 309 kts | 359° |
| 2026-05-05 11:27 | -23.97999 | -46.62588 | 11982 ft | 304 kts | 360° |
| 2026-05-05 11:27 | -23.95883 | -46.62590 | 11672 ft | 303 kts | 359° |
| 2026-05-05 11:28 | -23.93776 | -46.62591 | 11372 ft | 302 kts | 359° |
| 2026-05-05 11:28 | -23.91698 | -46.62592 | 11095 ft | 301 kts | 359° |
| 2026-05-05 11:28 | -23.89606 | -46.62594 | 10829 ft | 301 kts | 359° |
| 2026-05-05 11:28 | -23.87488 | -46.62595 | 10542 ft | 299 kts | 359° |
| 2026-05-05 11:29 | -23.85462 | -46.62858 | 10392 ft | 290 kts | 338° |
| 2026-05-05 11:29 | -23.83714 | -46.63868 | 10293 ft | 280 kts | 326° |
| 2026-05-05 11:29 | -23.82080 | -46.65024 | 10007 ft | 280 kts | 325° |
| 2026-05-05 11:29 | -23.80468 | -46.66168 | 9736 ft | 279 kts | 325° |
| 2026-05-05 11:30 | -23.78835 | -46.67315 | 9442 ft | 278 kts | 326° |
| 2026-05-05 11:30 | -23.77214 | -46.68448 | 9315 ft | 275 kts | 325° |
| 2026-05-05 11:30 | -23.75606 | -46.69568 | 9291 ft | 274 kts | 326° |
| 2026-05-05 11:30 | -23.73982 | -46.70697 | 9301 ft | 279 kts | 326° |
| 2026-05-05 11:31 | -23.72336 | -46.71839 | 9297 ft | 281 kts | 326° |
| 2026-05-05 11:31 | -23.70672 | -46.72993 | 8927 ft | 287 kts | 325° |
| 2026-05-05 11:31 | -23.68986 | -46.74164 | 8531 ft | 286 kts | 326° |
| 2026-05-05 11:31 | -23.67314 | -46.75322 | 8117 ft | 282 kts | 326° |
| 2026-05-05 11:32 | -23.65666 | -46.76462 | 7676 ft | 279 kts | 326° |
| 2026-05-05 11:32 | -23.64013 | -46.77608 | 7104 ft | 282 kts | 326° |
| 2026-05-05 11:32 | -23.62365 | -46.78749 | 6663 ft | 278 kts | 326° |
| 2026-05-05 11:32 | -23.60745 | -46.79871 | 6325 ft | 271 kts | 326° |
| 2026-05-05 11:33 | -23.59198 | -46.80908 | 6245 ft | 251 kts | 333° |
| 2026-05-05 11:33 | -23.57592 | -46.81240 | 6252 ft | 222 kts | 4° |
| 2026-05-05 11:33 | -23.56165 | -46.80802 | 6113 ft | 206 kts | 25° |
| 2026-05-05 11:33 | -23.55030 | -46.79979 | 5971 ft | 188 kts | 42° |
| 2026-05-05 11:34 | -23.54267 | -46.78931 | 5813 ft | 170 kts | 54° |
| 2026-05-05 11:34 | -23.53626 | -46.77857 | 5453 ft | 168 kts | 55° |
| 2026-05-05 11:34 | -23.53002 | -46.76797 | 5094 ft | 165 kts | 55° |
| 2026-05-05 11:34 | -23.52407 | -46.75765 | 4906 ft | 159 kts | 59° |
| 2026-05-05 11:35 | -23.52161 | -46.74585 | 4798 ft | 167 kts | 87° |
| 2026-05-05 11:35 | -23.52400 | -46.73337 | 4752 ft | 172 kts | 113° |
| 2026-05-05 11:35 | -23.53202 | -46.72373 | 4573 ft | 174 kts | 144° |
| 2026-05-05 11:35 | -23.54176 | -46.71574 | 4329 ft | 175 kts | 142° |
| 2026-05-05 11:36 | -23.55171 | -46.70832 | 4125 ft | 172 kts | 146° |
| 2026-05-05 11:36 | -23.56165 | -46.70142 | 3921 ft | 168 kts | 146° |
| 2026-05-05 11:36 | -23.57158 | -46.69456 | 3743 ft | 169 kts | 146° |
| 2026-05-05 11:36 | -23.58155 | -46.68766 | 3531 ft | 169 kts | 146° |
| 2026-05-05 11:37 | -23.59139 | -46.68085 | 3300 ft | 166 kts | 146° |
| 2026-05-05 11:37 | -23.60123 | -46.67405 | 3103 ft | 167 kts | 145° |
| 2026-05-05 11:37 | -23.61095 | -46.66734 | 2850 ft | 162 kts | 145° |
| 2026-05-05 11:37 | -23.62024 | -46.66098 | 2625 ft | 151 kts | 144° |
| 2026-05-05 11:38 | -23.62738 | -46.65597 | 2606 ft | 70 kts | 147° |
| 2026-05-05 11:38 | -23.62929 | -46.65541 | 2604 ft | 13 kts | 234° |
| 2026-05-05 11:38 | -23.62933 | -46.65547 | 2603 ft | 2 kts | 236° |
| 2026-05-05 11:38 | -23.62929 | -46.65586 | 2601 ft | 7 kts | 300° |
| 2026-05-05 11:39 | -23.62885 | -46.65608 | 2602 ft | 7 kts | 341° |
| 2026-05-05 11:39 | -23.62842 | -46.65634 | 2602 ft | 7 kts | 327° |
| 2026-05-05 11:39 | -23.62802 | -46.65661 | 2602 ft | 7 kts | 327° |
| 2026-05-05 11:39 | -23.62763 | -46.65689 | 2601 ft | 7 kts | 328° |
| 2026-05-05 11:40 | -23.62724 | -46.65715 | 2601 ft | 7 kts | 328° |
| 2026-05-05 11:40 | -23.62686 | -46.65741 | 2601 ft | 6 kts | 328° |
| 2026-05-05 11:40 | -23.62651 | -46.65769 | 2601 ft | 6 kts | 304° |
| 2026-05-05 11:40 | -23.62666 | -46.65810 | 2600 ft | 6 kts | 232° |
| 2026-05-05 11:41 | -23.62680 | -46.65830 | 2600 ft | 0 kts | 235° |
| 2026-05-05 11:41 | -23.62684 | -46.65837 | 2600 ft | 1 kts | 236° |
| 2026-05-05 11:41 | -23.62687 | -46.65842 | 2600 ft | 0 kts | 237° |